SBCZ/CZS METAR and TAF weather

Enter ICAO airport designator
Station Type Date Time Source
SBCZ METAR 2022/06/28 14:00 UTC NOAA

SBCZ 281400Z 03002KT CAVOK 27/23 Q1015


Station Type Date Time Source
SBCZ Decoded METAR 2022/06/28 14:00 UTC NOAA

Cruzeiro Do Sul, Brazil (SBCZ) 07-38S 072-40W
Jun 28, 2022 - 10:00 AM EDT / 2022.06.28 1400 UTC
Wind: from the NNE (030 degrees) at 2 MPH (2 KT):0
Visibility: greater than 7 mile(s):0
Temperature: 80 F (27 C)
Dew Point: 73 F (23 C)
Relative Humidity: 78%
Pressure (altimeter): 29.97 in. Hg (1015 hPa)
ob: SBCZ 281400Z 03002KT CAVOK 27/23 Q1015
cycle: 14

Station Type Date Time Source
SBCZ TAF 2022/06/28 12:03 UTC NOAA

TAF TAF SBCZ 280840Z 2812/2912 36005KT 8000 SCT017 TX33/2820Z TN22/2908Z
BECMG 2814/2816 27005KT 9999 SCT030
BECMG 2819/2821 16005KT FEW030
BECMG 2910/2912 19005KT SCT015
RMK PGB

Example: see airport list